sensor_id;sensor_type;location;lat;lon;timestamp;temperature;humidity
25951;DHT22;13748;52.240;6.002;2023-05-10T00:02:01;13.80;99.90
25951;DHT22;13748;52.240;6.002;2023-05-10T00:04:28;13.80;99.90
25951;DHT22;13748;52.240;6.002;2023-05-10T00:06:55;13.80;99.90
25951;DHT22;13748;52.240;6.002;2023-05-10T00:09:21;13.80;99.90
25951;DHT22;13748;52.240;6.002;2023-05-10T00:11:48;13.80;99.90
25951;DHT22;13748;52.240;6.002;2023-05-10T00:14:15;13.80;99.90
25951;DHT22;13748;52.240;6.002;2023-05-10T00:16:42;13.70;99.90
25951;DHT22;13748;52.240;6.002;2023-05-10T00:19:08;13.70;99.90
25951;DHT22;13748;52.240;6.002;2023-05-10T00:21:35;13.70;99.90
25951;DHT22;13748;52.240;6.002;2023-05-10T00:24:02;13.70;99.90
25951;DHT22;13748;52.240;6.002;2023-05-10T00:26:29;13.70;99.90
25951;DHT22;13748;52.240;6.002;2023-05-10T00:28:58;13.70;99.90
25951;DHT22;13748;52.240;6.002;2023-05-10T00:31:25;13.70;99.90
25951;DHT22;13748;52.240;6.002;2023-05-10T00:33:52;13.70;99.90
25951;DHT22;13748;52.240;6.002;2023-05-10T00:36:19;13.70;99.90
25951;DHT22;13748;52.240;6.002;2023-05-10T00:38:45;13.70;99.90
25951;DHT22;13748;52.240;6.002;2023-05-10T00:41:12;13.70;99.90
25951;DHT22;13748;52.240;6.002;2023-05-10T00:43:39;13.70;99.90
25951;DHT22;13748;52.240;6.002;2023-05-10T00:46:06;13.70;99.90
25951;DHT22;13748;52.240;6.002;2023-05-10T00:48:34;13.70;99.90
25951;DHT22;13748;52.240;6.002;2023-05-10T00:51:02;13.60;99.90
25951;DHT22;13748;52.240;6.002;2023-05-10T00:53:31;13.60;99.90
25951;DHT22;13748;52.240;6.002;2023-05-10T00:55:59;13.60;99.90
25951;DHT22;13748;52.240;6.002;2023-05-10T00:58:27;13.60;99.90
25951;DHT22;13748;52.240;6.002;2023-05-10T01:00:57;13.50;99.90
25951;DHT22;13748;52.240;6.002;2023-05-10T01:03:25;13.50;99.90
25951;DHT22;13748;52.240;6.002;2023-05-10T01:05:52;13.50;99.90
25951;DHT22;13748;52.240;6.002;2023-05-10T01:08:19;13.50;99.90
25951;DHT22;13748;52.240;6.002;2023-05-10T01:10:46;13.60;99.90
25951;DHT22;13748;52.240;6.002;2023-05-10T01:15:59;13.60;99.90
25951;DHT22;13748;52.240;6.002;2023-05-10T01:18:31;13.60;99.90
25951;DHT22;13748;52.240;6.002;2023-05-10T01:24:46;13.70;99.90
25951;DHT22;13748;52.240;6.002;2023-05-10T01:27:47;13.70;99.90
25951;DHT22;13748;52.240;6.002;2023-05-10T01:30:41;13.60;99.90
25951;DHT22;13748;52.240;6.002;2023-05-10T01:33:17;13.60;99.90
25951;DHT22;13748;52.240;6.002;2023-05-10T01:36:00;13.60;99.90
25951;DHT22;13748;52.240;6.002;2023-05-10T01:38:37;13.60;99.90
25951;DHT22;13748;52.240;6.002;2023-05-10T01:41:17;13.60;99.90
25951;DHT22;13748;52.240;6.002;2023-05-10T01:44:14;13.40;99.90
25951;DHT22;13748;52.240;6.002;2023-05-10T01:46:42;13.50;99.90
25951;DHT22;13748;52.240;6.002;2023-05-10T01:49:29;13.50;99.90
25951;DHT22;13748;52.240;6.002;2023-05-10T01:52:04;13.50;99.90
25951;DHT22;13748;52.240;6.002;2023-05-10T01:54:33;13.50;99.90
25951;DHT22;13748;52.240;6.002;2023-05-10T01:57:03;13.50;99.90
25951;DHT22;13748;52.240;6.002;2023-05-10T01:59:34;13.50;99.90
25951;DHT22;13748;52.240;6.002;2023-05-10T02:02:04;13.60;99.90
25951;DHT22;13748;52.240;6.002;2023-05-10T02:04:34;13.60;99.90
25951;DHT22;13748;52.240;6.002;2023-05-10T02:07:02;13.60;99.90
25951;DHT22;13748;52.240;6.002;2023-05-10T02:09:30;13.70;99.90
25951;DHT22;13748;52.240;6.002;2023-05-10T02:12:00;13.70;99.90
25951;DHT22;13748;52.240;6.002;2023-05-10T02:14:30;13.70;99.90
25951;DHT22;13748;52.240;6.002;2023-05-10T02:16:59;13.70;99.90
25951;DHT22;13748;52.240;6.002;2023-05-10T02:19:29;13.70;99.90
25951;DHT22;13748;52.240;6.002;2023-05-10T02:21:57;13.80;99.90
25951;DHT22;13748;52.240;6.002;2023-05-10T02:24:25;13.70;99.90
25951;DHT22;13748;52.240;6.002;2023-05-10T02:26:54;13.70;99.90
25951;DHT22;13748;52.240;6.002;2023-05-10T02:29:24;13.70;99.90
25951;DHT22;13748;52.240;6.002;2023-05-10T02:31:53;13.70;99.90
25951;DHT22;13748;52.240;6.002;2023-05-10T02:34:25;13.70;99.90
25951;DHT22;13748;52.240;6.002;2023-05-10T02:36:53;13.70;99.90
25951;DHT22;13748;52.240;6.002;2023-05-10T02:39:22;13.70;99.90
25951;DHT22;13748;52.240;6.002;2023-05-10T02:41:50;13.80;99.90
25951;DHT22;13748;52.240;6.002;2023-05-10T02:44:18;13.80;99.90
25951;DHT22;13748;52.240;6.002;2023-05-10T02:46:46;13.80;99.90
25951;DHT22;13748;52.240;6.002;2023-05-10T02:49:14;13.80;99.90
25951;DHT22;13748;52.240;6.002;2023-05-10T02:51:46;13.80;99.90
25951;DHT22;13748;52.240;6.002;2023-05-10T02:54:24;13.90;99.90
25951;DHT22;13748;52.240;6.002;2023-05-10T02:56:57;13.80;99.90
25951;DHT22;13748;52.240;6.002;2023-05-10T02:59:24;13.80;99.90
25951;DHT22;13748;52.240;6.002;2023-05-10T03:01:50;13.80;99.90
25951;DHT22;13748;52.240;6.002;2023-05-10T03:04:17;13.80;99.90
25951;DHT22;13748;52.240;6.002;2023-05-10T03:06:44;13.80;99.90
25951;DHT22;13748;52.240;6.002;2023-05-10T03:09:12;13.80;99.90
25951;DHT22;13748;52.240;6.002;2023-05-10T03:14:31;13.80;99.90
25951;DHT22;13748;52.240;6.002;2023-05-10T03:17:06;13.80;99.90
25951;DHT22;13748;52.240;6.002;2023-05-10T03:22:29;13.80;99.90
25951;DHT22;13748;52.240;6.002;2023-05-10T03:24:58;13.80;99.90
25951;DHT22;13748;52.240;6.002;2023-05-10T03:27:27;13.80;99.90
25951;DHT22;13748;52.240;6.002;2023-05-10T03:29:55;13.80;99.90
25951;DHT22;13748;52.240;6.002;2023-05-10T03:32:22;13.90;99.90
25951;DHT22;13748;52.240;6.002;2023-05-10T03:34:49;13.80;99.90
25951;DHT22;13748;52.240;6.002;2023-05-10T03:37:16;13.90;99.90
25951;DHT22;13748;52.240;6.002;2023-05-10T03:39:43;13.90;99.90
25951;DHT22;13748;52.240;6.002;2023-05-10T03:42:12;13.90;99.90
25951;DHT22;13748;52.240;6.002;2023-05-10T03:44:39;13.90;99.90
25951;DHT22;13748;52.240;6.002;2023-05-10T03:47:06;13.90;99.90
25951;DHT22;13748;52.240;6.002;2023-05-10T03:49:33;14.00;99.90
25951;DHT22;13748;52.240;6.002;2023-05-10T03:52:00;13.90;99.90
25951;DHT22;13748;52.240;6.002;2023-05-10T03:54:26;13.90;99.90
25951;DHT22;13748;52.240;6.002;2023-05-10T03:56:53;13.90;99.90
25951;DHT22;13748;52.240;6.002;2023-05-10T03:59:20;13.90;99.90
25951;DHT22;13748;52.240;6.002;2023-05-10T04:01:47;13.90;99.90
25951;DHT22;13748;52.240;6.002;2023-05-10T04:04:14;13.90;99.90
25951;DHT22;13748;52.240;6.002;2023-05-10T04:06:41;13.80;99.90
25951;DHT22;13748;52.240;6.002;2023-05-10T04:09:08;13.80;99.90
25951;DHT22;13748;52.240;6.002;2023-05-10T04:11:35;13.80;99.90
25951;DHT22;13748;52.240;6.002;2023-05-10T04:14:02;13.90;99.90
25951;DHT22;13748;52.240;6.002;2023-05-10T04:16:29;13.90;99.90
25951;DHT22;13748;52.240;6.002;2023-05-10T04:18:55;13.80;99.90
25951;DHT22;13748;52.240;6.002;2023-05-10T04:21:22;13.90;99.90
25951;DHT22;13748;52.240;6.002;2023-05-10T04:23:49;13.90;99.90
25951;DHT22;13748;52.240;6.002;2023-05-10T04:26:16;13.90;99.90
25951;DHT22;13748;52.240;6.002;2023-05-10T04:28:43;13.90;99.90
25951;DHT22;13748;52.240;6.002;2023-05-10T04:31:10;13.90;99.90
25951;DHT22;13748;52.240;6.002;2023-05-10T04:33:37;13.90;99.90
25951;DHT22;13748;52.240;6.002;2023-05-10T04:36:04;13.90;99.90
25951;DHT22;13748;52.240;6.002;2023-05-10T04:38:30;13.90;99.90
25951;DHT22;13748;52.240;6.002;2023-05-10T04:41:05;13.90;99.90
25951;DHT22;13748;52.240;6.002;2023-05-10T04:43:32;13.80;99.90
25951;DHT22;13748;52.240;6.002;2023-05-10T04:45:59;13.90;99.90
25951;DHT22;13748;52.240;6.002;2023-05-10T04:48:27;13.90;99.90
25951;DHT22;13748;52.240;6.002;2023-05-10T04:50:54;13.80;99.90
25951;DHT22;13748;52.240;6.002;2023-05-10T04:53:21;13.80;99.90
25951;DHT22;13748;52.240;6.002;2023-05-10T04:55:48;13.80;99.90
25951;DHT22;13748;52.240;6.002;2023-05-10T04:58:15;13.80;99.90
25951;DHT22;13748;52.240;6.002;2023-05-10T05:00:42;13.80;99.90
25951;DHT22;13748;52.240;6.002;2023-05-10T05:03:09;13.70;99.90
25951;DHT22;13748;52.240;6.002;2023-05-10T05:05:36;13.70;99.90
25951;DHT22;13748;52.240;6.002;2023-05-10T05:08:03;13.70;99.90
25951;DHT22;13748;52.240;6.002;2023-05-10T05:10:31;13.70;99.90
25951;DHT22;13748;52.240;6.002;2023-05-10T05:12:57;13.70;99.90
25951;DHT22;13748;52.240;6.002;2023-05-10T05:15:24;13.70;99.90
25951;DHT22;13748;52.240;6.002;2023-05-10T05:17:51;13.70;99.90
25951;DHT22;13748;52.240;6.002;2023-05-10T05:20:18;13.70;99.90
25951;DHT22;13748;52.240;6.002;2023-05-10T05:22:45;13.70;99.90
25951;DHT22;13748;52.240;6.002;2023-05-10T05:25:13;13.70;99.90
25951;DHT22;13748;52.240;6.002;2023-05-10T05:27:40;13.70;99.90
25951;DHT22;13748;52.240;6.002;2023-05-10T05:30:07;13.70;99.90
25951;DHT22;13748;52.240;6.002;2023-05-10T05:32:34;13.60;99.90
25951;DHT22;13748;52.240;6.002;2023-05-10T05:35:01;13.60;99.90
25951;DHT22;13748;52.240;6.002;2023-05-10T05:37:27;13.60;99.90
25951;DHT22;13748;52.240;6.002;2023-05-10T05:39:54;13.60;99.90
25951;DHT22;13748;52.240;6.002;2023-05-10T05:42:21;13.70;99.90
25951;DHT22;13748;52.240;6.002;2023-05-10T05:44:48;13.80;99.90
25951;DHT22;13748;52.240;6.002;2023-05-10T05:47:14;13.80;99.90
25951;DHT22;13748;52.240;6.002;2023-05-10T05:49:41;13.80;99.90
25951;DHT22;13748;52.240;6.002;2023-05-10T05:52:08;13.80;99.90
25951;DHT22;13748;52.240;6.002;2023-05-10T05:54:35;13.90;99.90
25951;DHT22;13748;52.240;6.002;2023-05-10T05:57:02;13.80;99.90
25951;DHT22;13748;52.240;6.002;2023-05-10T05:59:28;13.80;99.90
25951;DHT22;13748;52.240;6.002;2023-05-10T06:01:55;13.80;99.90
25951;DHT22;13748;52.240;6.002;2023-05-10T06:04:22;13.90;99.90
25951;DHT22;13748;52.240;6.002;2023-05-10T06:06:49;13.90;99.90
25951;DHT22;13748;52.240;6.002;2023-05-10T06:09:16;14.00;99.90
25951;DHT22;13748;52.240;6.002;2023-05-10T06:11:42;14.00;99.90
25951;DHT22;13748;52.240;6.002;2023-05-10T06:14:09;14.00;99.90
25951;DHT22;13748;52.240;6.002;2023-05-10T06:16:36;14.00;99.90
25951;DHT22;13748;52.240;6.002;2023-05-10T06:19:03;14.00;99.90
25951;DHT22;13748;52.240;6.002;2023-05-10T06:21:30;14.00;99.90
25951;DHT22;13748;52.240;6.002;2023-05-10T06:23:57;14.00;99.90
25951;DHT22;13748;52.240;6.002;2023-05-10T06:26:24;13.90;99.90
25951;DHT22;13748;52.240;6.002;2023-05-10T06:28:51;13.90;99.90
25951;DHT22;13748;52.240;6.002;2023-05-10T06:31:18;13.90;99.90
25951;DHT22;13748;52.240;6.002;2023-05-10T06:33:44;13.90;99.90
25951;DHT22;13748;52.240;6.002;2023-05-10T06:36:11;13.90;99.90
25951;DHT22;13748;52.240;6.002;2023-05-10T06:38:38;14.00;99.90
25951;DHT22;13748;52.240;6.002;2023-05-10T06:41:05;13.90;99.90
25951;DHT22;13748;52.240;6.002;2023-05-10T06:43:32;14.00;99.90
25951;DHT22;13748;52.240;6.002;2023-05-10T06:45:58;14.10;99.90
25951;DHT22;13748;52.240;6.002;2023-05-10T06:48:25;14.20;99.90
25951;DHT22;13748;52.240;6.002;2023-05-10T06:50:52;14.30;99.90
25951;DHT22;13748;52.240;6.002;2023-05-10T06:53:18;14.30;99.90
25951;DHT22;13748;52.240;6.002;2023-05-10T06:55:45;14.20;99.90
25951;DHT22;13748;52.240;6.002;2023-05-10T06:58:12;14.30;99.90
25951;DHT22;13748;52.240;6.002;2023-05-10T07:00:39;14.20;99.90
25951;DHT22;13748;52.240;6.002;2023-05-10T07:03:07;14.10;99.90
25951;DHT22;13748;52.240;6.002;2023-05-10T07:05:34;14.10;99.90
25951;DHT22;13748;52.240;6.002;2023-05-10T07:08:01;14.10;99.90
25951;DHT22;13748;52.240;6.002;2023-05-10T07:10:28;14.10;99.90
25951;DHT22;13748;52.240;6.002;2023-05-10T07:12:55;14.10;99.90
25951;DHT22;13748;52.240;6.002;2023-05-10T07:15:22;14.10;99.90
25951;DHT22;13748;52.240;6.002;2023-05-10T07:17:49;14.10;99.90
25951;DHT22;13748;52.240;6.002;2023-05-10T07:20:16;14.10;99.90
25951;DHT22;13748;52.240;6.002;2023-05-10T07:22:43;14.10;99.90
25951;DHT22;13748;52.240;6.002;2023-05-10T07:25:09;14.10;99.90
25951;DHT22;13748;52.240;6.002;2023-05-10T07:27:37;14.10;99.90
25951;DHT22;13748;52.240;6.002;2023-05-10T07:30:04;14.20;99.90
25951;DHT22;13748;52.240;6.002;2023-05-10T07:32:31;14.20;99.90
25951;DHT22;13748;52.240;6.002;2023-05-10T07:34:58;14.30;99.90
25951;DHT22;13748;52.240;6.002;2023-05-10T07:37:24;14.40;99.90
25951;DHT22;13748;52.240;6.002;2023-05-10T07:39:51;14.40;99.90
25951;DHT22;13748;52.240;6.002;2023-05-10T07:42:18;14.40;99.90
25951;DHT22;13748;52.240;6.002;2023-05-10T07:44:45;14.40;99.90
25951;DHT22;13748;52.240;6.002;2023-05-10T07:47:11;14.50;99.90
25951;DHT22;13748;52.240;6.002;2023-05-10T07:49:38;14.60;99.90
25951;DHT22;13748;52.240;6.002;2023-05-10T07:52:05;14.70;99.90
25951;DHT22;13748;52.240;6.002;2023-05-10T07:54:31;14.80;99.90
25951;DHT22;13748;52.240;6.002;2023-05-10T07:57:00;14.90;99.90
25951;DHT22;13748;52.240;6.002;2023-05-10T07:59:26;14.90;99.90
25951;DHT22;13748;52.240;6.002;2023-05-10T08:01:53;15.10;99.90
25951;DHT22;13748;52.240;6.002;2023-05-10T08:04:20;15.20;99.90
25951;DHT22;13748;52.240;6.002;2023-05-10T08:06:47;15.30;99.90
25951;DHT22;13748;52.240;6.002;2023-05-10T08:09:13;15.40;99.90
25951;DHT22;13748;52.240;6.002;2023-05-10T08:11:40;15.30;99.90
25951;DHT22;13748;52.240;6.002;2023-05-10T08:14:07;15.40;99.90
25951;DHT22;13748;52.240;6.002;2023-05-10T08:16:34;15.50;99.90
25951;DHT22;13748;52.240;6.002;2023-05-10T08:19:01;15.50;99.90
25951;DHT22;13748;52.240;6.002;2023-05-10T08:21:28;15.60;99.90
25951;DHT22;13748;52.240;6.002;2023-05-10T08:23:54;15.60;99.90
25951;DHT22;13748;52.240;6.002;2023-05-10T08:26:21;15.60;99.90
25951;DHT22;13748;52.240;6.002;2023-05-10T08:28:48;15.70;99.90
25951;DHT22;13748;52.240;6.002;2023-05-10T08:31:15;15.70;99.90
25951;DHT22;13748;52.240;6.002;2023-05-10T08:33:42;15.70;99.90
25951;DHT22;13748;52.240;6.002;2023-05-10T08:36:10;15.70;99.90
25951;DHT22;13748;52.240;6.002;2023-05-10T08:38:37;15.70;99.90
25951;DHT22;13748;52.240;6.002;2023-05-10T08:41:05;15.80;99.90
25951;DHT22;13748;52.240;6.002;2023-05-10T08:43:32;15.90;99.90
25951;DHT22;13748;52.240;6.002;2023-05-10T08:46:03;16.00;99.90
25951;DHT22;13748;52.240;6.002;2023-05-10T08:48:33;16.20;99.90
25951;DHT22;13748;52.240;6.002;2023-05-10T08:51:01;16.10;99.90
25951;DHT22;13748;52.240;6.002;2023-05-10T08:53:31;16.10;99.90
25951;DHT22;13748;52.240;6.002;2023-05-10T08:56:00;16.10;99.90
25951;DHT22;13748;52.240;6.002;2023-05-10T08:58:27;16.10;99.90
25951;DHT22;13748;52.240;6.002;2023-05-10T09:00:54;16.10;99.90
25951;DHT22;13748;52.240;6.002;2023-05-10T09:03:22;16.00;99.90
25951;DHT22;13748;52.240;6.002;2023-05-10T09:05:49;16.00;99.90
25951;DHT22;13748;52.240;6.002;2023-05-10T09:08:17;15.90;99.90
25951;DHT22;13748;52.240;6.002;2023-05-10T09:10:44;15.90;99.90
25951;DHT22;13748;52.240;6.002;2023-05-10T09:13:14;15.80;99.90
25951;DHT22;13748;52.240;6.002;2023-05-10T09:15:42;15.90;99.90
25951;DHT22;13748;52.240;6.002;2023-05-10T09:18:09;15.80;99.90
25951;DHT22;13748;52.240;6.002;2023-05-10T09:20:36;15.90;99.90
25951;DHT22;13748;52.240;6.002;2023-05-10T09:23:03;15.90;99.90
25951;DHT22;13748;52.240;6.002;2023-05-10T09:25:30;16.00;99.90
25951;DHT22;13748;52.240;6.002;2023-05-10T09:27:57;16.00;99.90
25951;DHT22;13748;52.240;6.002;2023-05-10T09:30:25;16.00;99.90
25951;DHT22;13748;52.240;6.002;2023-05-10T09:32:53;16.00;99.90
25951;DHT22;13748;52.240;6.002;2023-05-10T09:35:22;15.90;99.90
25951;DHT22;13748;52.240;6.002;2023-05-10T09:37:54;15.80;99.90
25951;DHT22;13748;52.240;6.002;2023-05-10T09:40:22;15.70;99.90
25951;DHT22;13748;52.240;6.002;2023-05-10T09:43:04;15.70;99.90
25951;DHT22;13748;52.240;6.002;2023-05-10T09:45:34;15.70;99.90
25951;DHT22;13748;52.240;6.002;2023-05-10T09:48:04;15.70;99.90
25951;DHT22;13748;52.240;6.002;2023-05-10T09:50:31;15.70;99.90
25951;DHT22;13748;52.240;6.002;2023-05-10T09:53:00;15.70;99.90
25951;DHT22;13748;52.240;6.002;2023-05-10T09:55:41;15.80;99.90
25951;DHT22;13748;52.240;6.002;2023-05-10T09:58:08;15.80;99.90
25951;DHT22;13748;52.240;6.002;2023-05-10T10:00:43;15.90;99.90
25951;DHT22;13748;52.240;6.002;2023-05-10T10:03:18;15.90;99.90
25951;DHT22;13748;52.240;6.002;2023-05-10T10:05:46;15.80;99.90
25951;DHT22;13748;52.240;6.002;2023-05-10T10:08:14;15.90;99.90
25951;DHT22;13748;52.240;6.002;2023-05-10T10:10:41;16.00;99.90
25951;DHT22;13748;52.240;6.002;2023-05-10T10:13:12;16.20;99.90
25951;DHT22;13748;52.240;6.002;2023-05-10T10:15:39;16.30;99.90
25951;DHT22;13748;52.240;6.002;2023-05-10T10:18:06;16.40;99.90
25951;DHT22;13748;52.240;6.002;2023-05-10T10:20:37;16.60;99.90
25951;DHT22;13748;52.240;6.002;2023-05-10T10:23:03;16.80;99.90
25951;DHT22;13748;52.240;6.002;2023-05-10T10:25:31;16.90;99.90
25951;DHT22;13748;52.240;6.002;2023-05-10T10:28:20;17.00;99.90
25951;DHT22;13748;52.240;6.002;2023-05-10T10:30:53;17.10;99.90
25951;DHT22;13748;52.240;6.002;2023-05-10T10:33:33;17.10;99.90
25951;DHT22;13748;52.240;6.002;2023-05-10T10:36:03;17.10;99.90
25951;DHT22;13748;52.240;6.002;2023-05-10T10:38:57;16.90;99.90
25951;DHT22;13748;52.240;6.002;2023-05-10T10:41:36;16.70;99.90
25951;DHT22;13748;52.240;6.002;2023-05-10T10:52:27;16.80;99.90
25951;DHT22;13748;52.240;6.002;2023-05-10T10:55:13;16.90;99.90
25951;DHT22;13748;52.240;6.002;2023-05-10T11:00:25;17.10;99.90
25951;DHT22;13748;52.240;6.002;2023-05-10T11:05:34;17.00;99.90
25951;DHT22;13748;52.240;6.002;2023-05-10T11:08:13;17.00;99.90
25951;DHT22;13748;52.240;6.002;2023-05-10T11:10:54;17.10;99.90
25951;DHT22;13748;52.240;6.002;2023-05-10T11:13:32;17.20;99.90
25951;DHT22;13748;52.240;6.002;2023-05-10T11:16:12;17.40;99.90
25951;DHT22;13748;52.240;6.002;2023-05-10T11:18:39;17.40;99.90
25951;DHT22;13748;52.240;6.002;2023-05-10T11:21:08;17.40;99.90
25951;DHT22;13748;52.240;6.002;2023-05-10T11:26:08;17.60;99.90
25951;DHT22;13748;52.240;6.002;2023-05-10T11:28:44;17.70;99.90
25951;DHT22;13748;52.240;6.002;2023-05-10T11:31:15;17.90;99.90
25951;DHT22;13748;52.240;6.002;2023-05-10T11:36:36;18.10;99.90
25951;DHT22;13748;52.240;6.002;2023-05-10T11:39:04;18.40;99.90
25951;DHT22;13748;52.240;6.002;2023-05-10T11:41:31;18.60;99.90
25951;DHT22;13748;52.240;6.002;2023-05-10T11:43:58;18.70;99.90
25951;DHT22;13748;52.240;6.002;2023-05-10T11:46:26;18.90;99.90
25951;DHT22;13748;52.240;6.002;2023-05-10T11:48:58;19.10;99.90
25951;DHT22;13748;52.240;6.002;2023-05-10T11:51:28;19.40;99.90
25951;DHT22;13748;52.240;6.002;2023-05-10T11:53:56;19.50;99.90
25951;DHT22;13748;52.240;6.002;2023-05-10T11:56:23;19.70;99.90
25951;DHT22;13748;52.240;6.002;2023-05-10T11:58:56;19.60;99.90
25951;DHT22;13748;52.240;6.002;2023-05-10T12:01:24;19.60;99.90
25951;DHT22;13748;52.240;6.002;2023-05-10T12:03:53;19.60;99.90
25951;DHT22;13748;52.240;6.002;2023-05-10T12:06:21;19.50;99.90
25951;DHT22;13748;52.240;6.002;2023-05-10T12:08:48;19.20;99.90
25951;DHT22;13748;52.240;6.002;2023-05-10T12:11:19;19.10;99.90
25951;DHT22;13748;52.240;6.002;2023-05-10T12:13:48;19.10;99.90
25951;DHT22;13748;52.240;6.002;2023-05-10T12:16:20;19.20;99.90
25951;DHT22;13748;52.240;6.002;2023-05-10T12:18:51;19.20;99.90
25951;DHT22;13748;52.240;6.002;2023-05-10T12:21:22;19.30;99.90
25951;DHT22;13748;52.240;6.002;2023-05-10T12:23:54;19.30;99.90
25951;DHT22;13748;52.240;6.002;2023-05-10T12:26:24;19.20;99.90
25951;DHT22;13748;52.240;6.002;2023-05-10T12:29:00;19.10;99.90
25951;DHT22;13748;52.240;6.002;2023-05-10T12:31:58;19.00;99.90
25951;DHT22;13748;52.240;6.002;2023-05-10T12:34:33;18.90;99.90
25951;DHT22;13748;52.240;6.002;2023-05-10T12:37:00;18.80;99.90
25951;DHT22;13748;52.240;6.002;2023-05-10T12:39:44;18.60;99.90
25951;DHT22;13748;52.240;6.002;2023-05-10T12:42:11;18.40;99.90
25951;DHT22;13748;52.240;6.002;2023-05-10T12:44:39;18.10;99.90
25951;DHT22;13748;52.240;6.002;2023-05-10T12:47:06;18.00;99.90
25951;DHT22;13748;52.240;6.002;2023-05-10T12:49:33;18.00;99.90
25951;DHT22;13748;52.240;6.002;2023-05-10T12:52:00;18.00;99.90
25951;DHT22;13748;52.240;6.002;2023-05-10T12:54:27;18.10;99.90
25951;DHT22;13748;52.240;6.002;2023-05-10T12:56:54;18.10;99.90
25951;DHT22;13748;52.240;6.002;2023-05-10T12:59:21;18.10;99.90
25951;DHT22;13748;52.240;6.002;2023-05-10T13:01:49;18.10;99.90
25951;DHT22;13748;52.240;6.002;2023-05-10T13:04:16;18.10;99.90
25951;DHT22;13748;52.240;6.002;2023-05-10T13:06:42;18.10;99.90
25951;DHT22;13748;52.240;6.002;2023-05-10T13:09:09;18.10;99.90
25951;DHT22;13748;52.240;6.002;2023-05-10T13:11:36;18.10;99.90
25951;DHT22;13748;52.240;6.002;2023-05-10T13:14:03;18.20;99.90
25951;DHT22;13748;52.240;6.002;2023-05-10T13:16:30;18.30;99.90
25951;DHT22;13748;52.240;6.002;2023-05-10T13:18:57;18.40;99.90
25951;DHT22;13748;52.240;6.002;2023-05-10T13:21:25;18.50;99.90
25951;DHT22;13748;52.240;6.002;2023-05-10T13:23:52;18.60;99.90
25951;DHT22;13748;52.240;6.002;2023-05-10T13:26:19;18.70;99.90
25951;DHT22;13748;52.240;6.002;2023-05-10T13:28:46;18.80;99.90
25951;DHT22;13748;52.240;6.002;2023-05-10T13:31:14;18.90;99.90
25951;DHT22;13748;52.240;6.002;2023-05-10T13:33:40;19.00;99.90
25951;DHT22;13748;52.240;6.002;2023-05-10T13:36:07;19.10;99.90
25951;DHT22;13748;52.240;6.002;2023-05-10T13:38:34;19.10;99.90
25951;DHT22;13748;52.240;6.002;2023-05-10T13:41:01;19.00;99.90
25951;DHT22;13748;52.240;6.002;2023-05-10T13:43:29;19.10;99.90
25951;DHT22;13748;52.240;6.002;2023-05-10T13:45:55;19.00;99.90
25951;DHT22;13748;52.240;6.002;2023-05-10T13:48:22;18.90;99.90
25951;DHT22;13748;52.240;6.002;2023-05-10T13:50:49;18.90;99.90
25951;DHT22;13748;52.240;6.002;2023-05-10T13:53:16;18.80;99.90
25951;DHT22;13748;52.240;6.002;2023-05-10T13:55:42;18.70;99.90
25951;DHT22;13748;52.240;6.002;2023-05-10T13:58:09;18.90;99.90
25951;DHT22;13748;52.240;6.002;2023-05-10T14:00:36;18.80;99.90
25951;DHT22;13748;52.240;6.002;2023-05-10T14:03:03;18.80;99.90
25951;DHT22;13748;52.240;6.002;2023-05-10T14:05:31;18.70;99.90
25951;DHT22;13748;52.240;6.002;2023-05-10T14:07:58;18.60;99.90
25951;DHT22;13748;52.240;6.002;2023-05-10T14:10:25;18.60;99.90
25951;DHT22;13748;52.240;6.002;2023-05-10T14:12:52;18.70;99.90
25951;DHT22;13748;52.240;6.002;2023-05-10T14:15:18;18.70;99.90
25951;DHT22;13748;52.240;6.002;2023-05-10T14:17:45;18.80;99.90
25951;DHT22;13748;52.240;6.002;2023-05-10T14:20:12;18.80;99.90
25951;DHT22;13748;52.240;6.002;2023-05-10T14:22:39;18.90;99.90
25951;DHT22;13748;52.240;6.002;2023-05-10T14:25:07;19.00;99.90
25951;DHT22;13748;52.240;6.002;2023-05-10T14:27:34;19.10;99.90
25951;DHT22;13748;52.240;6.002;2023-05-10T14:30:00;19.20;99.90
25951;DHT22;13748;52.240;6.002;2023-05-10T14:32:27;19.30;99.90
25951;DHT22;13748;52.240;6.002;2023-05-10T14:34:55;19.50;99.90
25951;DHT22;13748;52.240;6.002;2023-05-10T14:37:22;19.70;99.90
25951;DHT22;13748;52.240;6.002;2023-05-10T14:39:48;19.80;99.90
25951;DHT22;13748;52.240;6.002;2023-05-10T14:42:15;19.80;99.90
25951;DHT22;13748;52.240;6.002;2023-05-10T14:44:42;19.90;99.90
25951;DHT22;13748;52.240;6.002;2023-05-10T14:47:09;19.90;99.90
25951;DHT22;13748;52.240;6.002;2023-05-10T14:49:38;19.80;99.90
25951;DHT22;13748;52.240;6.002;2023-05-10T14:52:04;19.60;99.90
25951;DHT22;13748;52.240;6.002;2023-05-10T14:54:31;19.60;99.90
25951;DHT22;13748;52.240;6.002;2023-05-10T14:56:59;19.60;99.90
25951;DHT22;13748;52.240;6.002;2023-05-10T14:59:27;19.50;99.90
25951;DHT22;13748;52.240;6.002;2023-05-10T15:01:54;19.60;99.90
25951;DHT22;13748;52.240;6.002;2023-05-10T15:04:21;19.60;99.90
25951;DHT22;13748;52.240;6.002;2023-05-10T15:06:48;19.60;99.90
25951;DHT22;13748;52.240;6.002;2023-05-10T15:09:15;19.50;99.90
25951;DHT22;13748;52.240;6.002;2023-05-10T15:11:42;19.40;99.90
25951;DHT22;13748;52.240;6.002;2023-05-10T15:14:10;19.40;99.90
25951;DHT22;13748;52.240;6.002;2023-05-10T15:16:37;19.30;99.90
25951;DHT22;13748;52.240;6.002;2023-05-10T15:19:04;19.20;99.90
25951;DHT22;13748;52.240;6.002;2023-05-10T15:21:31;19.10;99.90
25951;DHT22;13748;52.240;6.002;2023-05-10T15:24:05;19.10;99.90
25951;DHT22;13748;52.240;6.002;2023-05-10T15:26:32;19.00;99.90
25951;DHT22;13748;52.240;6.002;2023-05-10T15:28:59;18.90;99.90
25951;DHT22;13748;52.240;6.002;2023-05-10T15:31:26;18.80;99.90
25951;DHT22;13748;52.240;6.002;2023-05-10T15:33:57;18.70;99.90
25951;DHT22;13748;52.240;6.002;2023-05-10T15:36:25;18.60;99.90
25951;DHT22;13748;52.240;6.002;2023-05-10T15:38:53;18.60;99.90
25951;DHT22;13748;52.240;6.002;2023-05-10T15:41:20;18.50;99.90
25951;DHT22;13748;52.240;6.002;2023-05-10T15:43:47;18.50;99.90
25951;DHT22;13748;52.240;6.002;2023-05-10T15:46:13;18.40;99.90
25951;DHT22;13748;52.240;6.002;2023-05-10T15:48:40;18.30;99.90
25951;DHT22;13748;52.240;6.002;2023-05-10T15:51:08;18.10;99.90
25951;DHT22;13748;52.240;6.002;2023-05-10T15:53:34;18.00;99.90
25951;DHT22;13748;52.240;6.002;2023-05-10T15:56:01;17.80;99.90
25951;DHT22;13748;52.240;6.002;2023-05-10T15:58:28;17.60;99.90
25951;DHT22;13748;52.240;6.002;2023-05-10T16:00:55;17.40;99.90
25951;DHT22;13748;52.240;6.002;2023-05-10T16:03:23;17.30;99.90
25951;DHT22;13748;52.240;6.002;2023-05-10T16:05:50;17.20;99.90
25951;DHT22;13748;52.240;6.002;2023-05-10T16:08:17;17.10;99.90
25951;DHT22;13748;52.240;6.002;2023-05-10T16:10:44;17.10;99.90